Terminal Aerodrome Forecast
Issued by NWS Upton, NY

Home | Current Version | Previous Version | Text Only | Print | Product List | Glossary On
Versions: 1 2 3 4 5 6 7 8 9 10 11 12 13 14 15 16 17 18 19 20 21 22 23 24 25 26 27 28 29 30 31
582
FTUS41 KOKX 210810 AAA
TAFJFK
TAF AMD
KJFK 210810Z 2108/2212 27006KT P6SM SCT250
     FM211200 31006KT P6SM FEW250
     FM211800 26006KT P6SM FEW250
     FM212300 23005KT P6SM BKN040
     FM220300 23004KT P6SM BKN025
     FM220700 VRB03KT P6SM VCSH BKN012=

USA.gov is the U.S. government's official web portal to all federal, state and local government web resources and services.